sensor_id;sensor_type;location;lat;lon;timestamp;P1;durP1;ratioP1;P2;durP2;ratioP2
77402;SDS011;66472;53.046;8.656;2023-06-19T00:03:50;9.77;;;8.98;;
77402;SDS011;66472;53.046;8.656;2023-06-19T00:09:04;10.05;;;9.23;;
77402;SDS011;66472;53.046;8.656;2023-06-19T00:14:00;11.30;;;10.40;;
77402;SDS011;66472;53.046;8.656;2023-06-19T00:19:02;11.75;;;10.75;;
77402;SDS011;66472;53.046;8.656;2023-06-19T00:23:58;10.05;;;9.27;;
77402;SDS011;66472;53.046;8.656;2023-06-19T00:28:54;10.77;;;10.00;;
77402;SDS011;66472;53.046;8.656;2023-06-19T00:33:51;10.18;;;9.30;;
77402;SDS011;66472;53.046;8.656;2023-06-19T00:38:49;10.30;;;9.32;;
77402;SDS011;66472;53.046;8.656;2023-06-19T00:43:45;10.43;;;9.57;;
77402;SDS011;66472;53.046;8.656;2023-06-19T00:48:42;11.23;;;10.37;;
77402;SDS011;66472;53.046;8.656;2023-06-19T00:53:37;9.47;;;8.63;;
77402;SDS011;66472;53.046;8.656;2023-06-19T00:58:33;9.93;;;9.23;;
77402;SDS011;66472;53.046;8.656;2023-06-19T01:03:28;9.70;;;8.87;;
77402;SDS011;66472;53.046;8.656;2023-06-19T01:08:37;8.97;;;8.27;;
77402;SDS011;66472;53.046;8.656;2023-06-19T01:13:47;11.83;;;9.07;;
77402;SDS011;66472;53.046;8.656;2023-06-19T01:18:44;10.17;;;9.37;;
77402;SDS011;66472;53.046;8.656;2023-06-19T01:23:43;11.30;;;10.40;;
77402;SDS011;66472;53.046;8.656;2023-06-19T01:28:42;11.50;;;9.40;;
77402;SDS011;66472;53.046;8.656;2023-06-19T01:33:38;9.93;;;9.17;;
77402;SDS011;66472;53.046;8.656;2023-06-19T01:38:36;9.07;;;8.47;;
77402;SDS011;66472;53.046;8.656;2023-06-19T01:43:32;10.17;;;9.13;;
77402;SDS011;66472;53.046;8.656;2023-06-19T01:48:28;8.97;;;8.10;;
77402;SDS011;66472;53.046;8.656;2023-06-19T01:53:24;10.50;;;8.50;;
77402;SDS011;66472;53.046;8.656;2023-06-19T01:58:19;9.60;;;8.90;;
77402;SDS011;66472;53.046;8.656;2023-06-19T02:03:14;10.37;;;9.37;;
77402;SDS011;66472;53.046;8.656;2023-06-19T02:08:11;10.10;;;9.30;;
77402;SDS011;66472;53.046;8.656;2023-06-19T02:13:06;10.00;;;9.20;;
77402;SDS011;66472;53.046;8.656;2023-06-19T02:18:01;9.03;;;8.33;;
77402;SDS011;66472;53.046;8.656;2023-06-19T02:22:57;9.60;;;8.80;;
77402;SDS011;66472;53.046;8.656;2023-06-19T02:27:52;10.37;;;9.47;;
77402;SDS011;66472;53.046;8.656;2023-06-19T02:32:48;9.40;;;8.60;;
77402;SDS011;66472;53.046;8.656;2023-06-19T02:37:43;10.33;;;9.47;;
77402;SDS011;66472;53.046;8.656;2023-06-19T02:42:39;10.27;;;9.27;;
77402;SDS011;66472;53.046;8.656;2023-06-19T02:47:35;10.27;;;9.47;;
77402;SDS011;66472;53.046;8.656;2023-06-19T02:52:31;10.27;;;9.27;;
77402;SDS011;66472;53.046;8.656;2023-06-19T02:57:26;9.77;;;8.93;;
77402;SDS011;66472;53.046;8.656;2023-06-19T03:02:21;9.97;;;9.17;;
77402;SDS011;66472;53.046;8.656;2023-06-19T03:07:17;9.93;;;9.13;;
77402;SDS011;66472;53.046;8.656;2023-06-19T03:12:13;10.30;;;9.33;;
77402;SDS011;66472;53.046;8.656;2023-06-19T03:17:08;10.40;;;9.30;;
77402;SDS011;66472;53.046;8.656;2023-06-19T03:22:04;10.43;;;9.53;;
77402;SDS011;66472;53.046;8.656;2023-06-19T03:27:00;10.77;;;9.73;;
77402;SDS011;66472;53.046;8.656;2023-06-19T03:31:56;10.63;;;9.83;;
77402;SDS011;66472;53.046;8.656;2023-06-19T03:36:56;9.63;;;8.83;;
77402;SDS011;66472;53.046;8.656;2023-06-19T03:41:51;10.47;;;9.67;;
77402;SDS011;66472;53.046;8.656;2023-06-19T03:46:47;10.23;;;9.33;;
77402;SDS011;66472;53.046;8.656;2023-06-19T03:51:42;10.23;;;9.40;;
77402;SDS011;66472;53.046;8.656;2023-06-19T03:56:38;10.27;;;9.47;;
77402;SDS011;66472;53.046;8.656;2023-06-19T04:01:33;11.33;;;10.33;;
77402;SDS011;66472;53.046;8.656;2023-06-19T04:06:29;10.67;;;9.87;;
77402;SDS011;66472;53.046;8.656;2023-06-19T04:11:24;11.47;;;10.47;;
77402;SDS011;66472;53.046;8.656;2023-06-19T04:16:20;12.77;;;11.47;;
77402;SDS011;66472;53.046;8.656;2023-06-19T04:21:15;11.97;;;10.87;;
77402;SDS011;66472;53.046;8.656;2023-06-19T04:26:11;12.57;;;11.67;;
77402;SDS011;66472;53.046;8.656;2023-06-19T04:31:08;12.03;;;11.10;;
77402;SDS011;66472;53.046;8.656;2023-06-19T04:36:03;16.77;;;12.33;;
77402;SDS011;66472;53.046;8.656;2023-06-19T04:40:58;11.13;;;10.13;;
77402;SDS011;66472;53.046;8.656;2023-06-19T04:45:54;12.20;;;11.07;;
77402;SDS011;66472;53.046;8.656;2023-06-19T04:50:50;11.32;;;10.43;;
77402;SDS011;66472;53.046;8.656;2023-06-19T04:55:45;12.13;;;11.13;;
77402;SDS011;66472;53.046;8.656;2023-06-19T05:00:40;12.13;;;11.10;;
77402;SDS011;66472;53.046;8.656;2023-06-19T05:05:36;12.30;;;11.40;;
77402;SDS011;66472;53.046;8.656;2023-06-19T05:10:31;11.70;;;10.80;;
77402;SDS011;66472;53.046;8.656;2023-06-19T05:15:26;11.43;;;10.50;;
77402;SDS011;66472;53.046;8.656;2023-06-19T05:20:22;11.10;;;10.10;;
77402;SDS011;66472;53.046;8.656;2023-06-19T05:25:17;11.32;;;10.35;;
77402;SDS011;66472;53.046;8.656;2023-06-19T05:30:12;12.13;;;11.13;;
77402;SDS011;66472;53.046;8.656;2023-06-19T05:35:08;12.80;;;10.77;;
77402;SDS011;66472;53.046;8.656;2023-06-19T05:40:03;10.93;;;9.95;;
77402;SDS011;66472;53.046;8.656;2023-06-19T05:44:59;10.80;;;9.95;;
77402;SDS011;66472;53.046;8.656;2023-06-19T05:49:54;10.82;;;9.93;;
77402;SDS011;66472;53.046;8.656;2023-06-19T05:54:50;11.40;;;10.50;;
77402;SDS011;66472;53.046;8.656;2023-06-19T05:59:45;11.65;;;10.73;;
77402;SDS011;66472;53.046;8.656;2023-06-19T06:04:41;12.10;;;11.18;;
77402;SDS011;66472;53.046;8.656;2023-06-19T06:09:36;11.93;;;11.02;;
77402;SDS011;66472;53.046;8.656;2023-06-19T06:14:31;10.00;;;9.25;;
77402;SDS011;66472;53.046;8.656;2023-06-19T06:19:27;11.07;;;10.27;;
77402;SDS011;66472;53.046;8.656;2023-06-19T06:24:22;14.15;;;12.63;;
77402;SDS011;66472;53.046;8.656;2023-06-19T06:29:19;11.00;;;10.05;;
77402;SDS011;66472;53.046;8.656;2023-06-19T06:34:19;9.57;;;8.88;;
77402;SDS011;66472;53.046;8.656;2023-06-19T06:39:14;12.32;;;9.55;;
77402;SDS011;66472;53.046;8.656;2023-06-19T06:44:10;14.93;;;10.65;;
77402;SDS011;66472;53.046;8.656;2023-06-19T06:49:06;11.50;;;10.45;;
77402;SDS011;66472;53.046;8.656;2023-06-19T06:54:01;11.18;;;10.27;;
77402;SDS011;66472;53.046;8.656;2023-06-19T06:58:56;10.47;;;9.57;;
77402;SDS011;66472;53.046;8.656;2023-06-19T07:03:53;10.35;;;9.48;;
77402;SDS011;66472;53.046;8.656;2023-06-19T07:08:50;10.93;;;10.02;;
77402;SDS011;66472;53.046;8.656;2023-06-19T07:13:45;10.43;;;9.00;;
77402;SDS011;66472;53.046;8.656;2023-06-19T07:18:40;8.82;;;8.13;;
77402;SDS011;66472;53.046;8.656;2023-06-19T07:23:36;10.13;;;9.23;;
77402;SDS011;66472;53.046;8.656;2023-06-19T07:28:31;9.90;;;9.15;;
77402;SDS011;66472;53.046;8.656;2023-06-19T07:33:27;10.48;;;9.57;;
77402;SDS011;66472;53.046;8.656;2023-06-19T07:38:22;9.48;;;8.77;;
77402;SDS011;66472;53.046;8.656;2023-06-19T07:43:17;9.50;;;8.80;;
77402;SDS011;66472;53.046;8.656;2023-06-19T07:48:13;9.98;;;9.18;;
77402;SDS011;66472;53.046;8.656;2023-06-19T07:53:08;10.45;;;9.55;;
77402;SDS011;66472;53.046;8.656;2023-06-19T07:58:03;11.00;;;10.13;;
77402;SDS011;66472;53.046;8.656;2023-06-19T08:02:59;12.70;;;11.68;;
77402;SDS011;66472;53.046;8.656;2023-06-19T08:07:55;10.37;;;9.47;;
77402;SDS011;66472;53.046;8.656;2023-06-19T08:12:51;10.32;;;9.60;;
77402;SDS011;66472;53.046;8.656;2023-06-19T08:17:46;10.70;;;9.83;;
77402;SDS011;66472;53.046;8.656;2023-06-19T08:22:41;11.93;;;11.03;;
77402;SDS011;66472;53.046;8.656;2023-06-19T08:27:37;10.00;;;9.00;;
77402;SDS011;66472;53.046;8.656;2023-06-19T08:32:32;13.15;;;9.68;;
77402;SDS011;66472;53.046;8.656;2023-06-19T08:37:30;11.05;;;10.00;;
77402;SDS011;66472;53.046;8.656;2023-06-19T08:42:26;10.02;;;9.13;;
77402;SDS011;66472;53.046;8.656;2023-06-19T08:47:22;10.05;;;9.35;;
77402;SDS011;66472;53.046;8.656;2023-06-19T08:52:17;8.57;;;7.97;;
77402;SDS011;66472;53.046;8.656;2023-06-19T08:57:12;8.75;;;7.95;;
77402;SDS011;66472;53.046;8.656;2023-06-19T09:02:07;10.13;;;9.18;;
77402;SDS011;66472;53.046;8.656;2023-06-19T09:07:03;10.60;;;9.60;;
77402;SDS011;66472;53.046;8.656;2023-06-19T09:12:08;9.65;;;8.85;;
77402;SDS011;66472;53.046;8.656;2023-06-19T09:17:13;8.77;;;8.15;;
77402;SDS011;66472;53.046;8.656;2023-06-19T09:22:08;8.63;;;8.02;;
77402;SDS011;66472;53.046;8.656;2023-06-19T09:27:10;7.28;;;6.68;;
77402;SDS011;66472;53.046;8.656;2023-06-19T09:37:20;8.60;;;8.05;;
77402;SDS011;66472;53.046;8.656;2023-06-19T09:42:16;8.65;;;7.95;;
77402;SDS011;66472;53.046;8.656;2023-06-19T09:47:14;8.73;;;7.93;;
77402;SDS011;66472;53.046;8.656;2023-06-19T09:52:12;8.60;;;6.45;;
77402;SDS011;66472;53.046;8.656;2023-06-19T09:57:07;7.55;;;6.43;;
77402;SDS011;66472;53.046;8.656;2023-06-19T10:02:03;8.85;;;7.97;;
77402;SDS011;66472;53.046;8.656;2023-06-19T10:07:01;8.05;;;7.35;;
77402;SDS011;66472;53.046;8.656;2023-06-19T10:11:57;10.63;;;9.93;;
77402;SDS011;66472;53.046;8.656;2023-06-19T10:16:52;13.50;;;12.60;;
77402;SDS011;66472;53.046;8.656;2023-06-19T10:21:48;12.15;;;11.25;;
77402;SDS011;66472;53.046;8.656;2023-06-19T10:26:54;14.35;;;13.25;;
77402;SDS011;66472;53.046;8.656;2023-06-19T10:31:50;12.18;;;11.38;;
77402;SDS011;66472;53.046;8.656;2023-06-19T10:36:45;13.27;;;12.48;;
77402;SDS011;66472;53.046;8.656;2023-06-19T10:41:40;13.77;;;12.80;;
77402;SDS011;66472;53.046;8.656;2023-06-19T10:46:36;15.45;;;14.40;;
77402;SDS011;66472;53.046;8.656;2023-06-19T10:55:44;15.68;;;14.57;;
77402;SDS011;66472;53.046;8.656;2023-06-19T11:00:39;14.90;;;13.82;;
77402;SDS011;66472;53.046;8.656;2023-06-19T11:10:54;9.55;;;8.95;;
77402;SDS011;66472;53.046;8.656;2023-06-19T11:15:50;13.00;;;12.07;;
77402;SDS011;66472;53.046;8.656;2023-06-19T11:20:46;12.15;;;11.35;;
77402;SDS011;66472;53.046;8.656;2023-06-19T11:25:43;13.07;;;12.27;;
77402;SDS011;66472;53.046;8.656;2023-06-19T11:30:38;14.70;;;13.77;;
77402;SDS011;66472;53.046;8.656;2023-06-19T11:35:33;12.93;;;12.03;;
77402;SDS011;66472;53.046;8.656;2023-06-19T11:40:41;13.15;;;12.10;;
77402;SDS011;66472;53.046;8.656;2023-06-19T11:45:49;12.93;;;11.80;;
77402;SDS011;66472;53.046;8.656;2023-06-19T11:50:45;14.07;;;13.13;;
77402;SDS011;66472;53.046;8.656;2023-06-19T11:55:40;15.43;;;14.40;;
77402;SDS011;66472;53.046;8.656;2023-06-19T12:00:38;13.77;;;12.82;;
77402;SDS011;66472;53.046;8.656;2023-06-19T12:05:33;10.07;;;9.38;;
77402;SDS011;66472;53.046;8.656;2023-06-19T12:10:29;13.00;;;11.98;;
77402;SDS011;66472;53.046;8.656;2023-06-19T12:15:25;14.05;;;13.05;;
77402;SDS011;66472;53.046;8.656;2023-06-19T12:20:20;14.73;;;13.73;;
77402;SDS011;66472;53.046;8.656;2023-06-19T12:25:16;12.52;;;11.63;;
77402;SDS011;66472;53.046;8.656;2023-06-19T12:30:11;10.48;;;9.68;;
77402;SDS011;66472;53.046;8.656;2023-06-19T12:35:07;10.77;;;10.07;;
77402;SDS011;66472;53.046;8.656;2023-06-19T12:40:02;13.30;;;12.30;;
77402;SDS011;66472;53.046;8.656;2023-06-19T12:45:03;14.55;;;13.65;;
77402;SDS011;66472;53.046;8.656;2023-06-19T12:49:58;10.35;;;9.60;;
77402;SDS011;66472;53.046;8.656;2023-06-19T12:54:54;13.15;;;12.15;;
77402;SDS011;66472;53.046;8.656;2023-06-19T12:59:49;13.07;;;12.35;;
77402;SDS011;66472;53.046;8.656;2023-06-19T13:04:44;11.20;;;10.30;;
77402;SDS011;66472;53.046;8.656;2023-06-19T13:09:39;10.40;;;9.75;;
77402;SDS011;66472;53.046;8.656;2023-06-19T13:14:35;10.45;;;9.75;;
77402;SDS011;66472;53.046;8.656;2023-06-19T13:19:30;10.88;;;10.05;;
77402;SDS011;66472;53.046;8.656;2023-06-19T13:24:25;10.55;;;9.45;;
77402;SDS011;66472;53.046;8.656;2023-06-19T13:29:24;10.27;;;9.57;;
77402;SDS011;66472;53.046;8.656;2023-06-19T13:34:19;9.85;;;9.25;;
77402;SDS011;66472;53.046;8.656;2023-06-19T13:39:16;11.85;;;11.05;;
77402;SDS011;66472;53.046;8.656;2023-06-19T13:44:14;12.50;;;11.27;;
77402;SDS011;66472;53.046;8.656;2023-06-19T13:49:10;13.43;;;12.45;;
77402;SDS011;66472;53.046;8.656;2023-06-19T13:54:06;11.63;;;10.73;;
77402;SDS011;66472;53.046;8.656;2023-06-19T13:59:01;11.82;;;10.77;;
77402;SDS011;66472;53.046;8.656;2023-06-19T14:03:58;10.25;;;9.45;;
77402;SDS011;66472;53.046;8.656;2023-06-19T14:08:53;10.52;;;9.93;;
77402;SDS011;66472;53.046;8.656;2023-06-19T14:13:49;9.85;;;9.15;;
77402;SDS011;66472;53.046;8.656;2023-06-19T14:18:45;10.20;;;9.55;;
77402;SDS011;66472;53.046;8.656;2023-06-19T14:23:40;12.63;;;11.77;;
77402;SDS011;66472;53.046;8.656;2023-06-19T14:28:38;11.90;;;11.10;;
77402;SDS011;66472;53.046;8.656;2023-06-19T14:33:34;12.10;;;11.10;;
77402;SDS011;66472;53.046;8.656;2023-06-19T14:38:32;11.35;;;10.57;;
77402;SDS011;66472;53.046;8.656;2023-06-19T14:48:56;11.32;;;10.55;;
77402;SDS011;66472;53.046;8.656;2023-06-19T14:53:54;13.77;;;12.88;;
77402;SDS011;66472;53.046;8.656;2023-06-19T14:58:52;11.68;;;10.98;;
77402;SDS011;66472;53.046;8.656;2023-06-19T15:03:48;10.98;;;10.18;;
77402;SDS011;66472;53.046;8.656;2023-06-19T15:08:49;11.38;;;10.57;;
77402;SDS011;66472;53.046;8.656;2023-06-19T15:13:45;11.75;;;10.57;;
77402;SDS011;66472;53.046;8.656;2023-06-19T15:18:47;12.52;;;11.43;;
77402;SDS011;66472;53.046;8.656;2023-06-19T15:23:42;14.52;;;13.73;;
77402;SDS011;66472;53.046;8.656;2023-06-19T15:28:41;16.75;;;15.65;;
77402;SDS011;66472;53.046;8.656;2023-06-19T15:33:38;14.43;;;13.02;;
77402;SDS011;66472;53.046;8.656;2023-06-19T15:38:35;15.40;;;14.45;;
77402;SDS011;66472;53.046;8.656;2023-06-19T15:43:33;15.57;;;14.38;;
77402;SDS011;66472;53.046;8.656;2023-06-19T15:48:28;14.95;;;13.95;;
77402;SDS011;66472;53.046;8.656;2023-06-19T15:53:24;16.60;;;15.48;;
77402;SDS011;66472;53.046;8.656;2023-06-19T15:58:19;15.55;;;14.57;;
77402;SDS011;66472;53.046;8.656;2023-06-19T16:03:15;14.67;;;13.67;;
77402;SDS011;66472;53.046;8.656;2023-06-19T16:08:11;15.27;;;14.25;;
77402;SDS011;66472;53.046;8.656;2023-06-19T16:13:06;16.55;;;15.43;;
77402;SDS011;66472;53.046;8.656;2023-06-19T16:18:08;15.65;;;14.55;;
77402;SDS011;66472;53.046;8.656;2023-06-19T16:23:03;12.48;;;11.52;;
77402;SDS011;66472;53.046;8.656;2023-06-19T16:27:59;11.05;;;10.25;;
77402;SDS011;66472;53.046;8.656;2023-06-19T16:32:57;9.68;;;8.98;;
77402;SDS011;66472;53.046;8.656;2023-06-19T16:37:56;11.32;;;10.32;;
77402;SDS011;66472;53.046;8.656;2023-06-19T16:42:51;10.25;;;9.45;;
77402;SDS011;66472;53.046;8.656;2023-06-19T16:47:50;11.63;;;10.45;;
77402;SDS011;66472;53.046;8.656;2023-06-19T16:52:55;11.23;;;10.20;;
77402;SDS011;66472;53.046;8.656;2023-06-19T16:57:51;9.57;;;8.88;;
77402;SDS011;66472;53.046;8.656;2023-06-19T17:02:46;10.45;;;9.65;;
77402;SDS011;66472;53.046;8.656;2023-06-19T17:07:43;10.40;;;9.70;;
77402;SDS011;66472;53.046;8.656;2023-06-19T17:12:48;11.88;;;10.88;;
77402;SDS011;66472;53.046;8.656;2023-06-19T17:17:43;12.02;;;10.70;;
77402;SDS011;66472;53.046;8.656;2023-06-19T17:22:41;11.35;;;10.45;;
77402;SDS011;66472;53.046;8.656;2023-06-19T17:27:42;11.48;;;10.50;;
77402;SDS011;66472;53.046;8.656;2023-06-19T17:32:40;11.52;;;10.63;;
77402;SDS011;66472;53.046;8.656;2023-06-19T17:37:36;9.82;;;9.02;;
77402;SDS011;66472;53.046;8.656;2023-06-19T17:42:39;9.98;;;9.07;;
77402;SDS011;66472;53.046;8.656;2023-06-19T17:47:35;11.18;;;10.07;;
77402;SDS011;66472;53.046;8.656;2023-06-19T17:52:31;10.63;;;9.65;;
77402;SDS011;66472;53.046;8.656;2023-06-19T17:57:29;11.55;;;10.35;;
77402;SDS011;66472;53.046;8.656;2023-06-19T18:02:30;8.85;;;7.95;;
77402;SDS011;66472;53.046;8.656;2023-06-19T18:07:28;10.98;;;9.35;;
77402;SDS011;66472;53.046;8.656;2023-06-19T18:12:24;10.10;;;9.20;;
77402;SDS011;66472;53.046;8.656;2023-06-19T18:17:22;11.05;;;10.05;;
77402;SDS011;66472;53.046;8.656;2023-06-19T18:22:28;11.40;;;10.60;;
77402;SDS011;66472;53.046;8.656;2023-06-19T18:27:38;10.98;;;9.98;;
77402;SDS011;66472;53.046;8.656;2023-06-19T18:32:39;11.52;;;9.60;;
77402;SDS011;66472;53.046;8.656;2023-06-19T18:37:37;10.77;;;10.02;;
77402;SDS011;66472;53.046;8.656;2023-06-19T18:42:33;12.88;;;11.77;;
77402;SDS011;66472;53.046;8.656;2023-06-19T18:47:39;12.25;;;11.20;;
77402;SDS011;66472;53.046;8.656;2023-06-19T18:52:38;10.98;;;9.98;;
77402;SDS011;66472;53.046;8.656;2023-06-19T18:58:22;8.93;;;8.05;;
77402;SDS011;66472;53.046;8.656;2023-06-19T19:03:27;9.30;;;8.48;;
77402;SDS011;66472;53.046;8.656;2023-06-19T19:08:48;12.55;;;10.35;;
77402;SDS011;66472;53.046;8.656;2023-06-19T19:13:54;12.20;;;11.18;;
77402;SDS011;66472;53.046;8.656;2023-06-19T19:18:50;13.75;;;12.20;;
77402;SDS011;66472;53.046;8.656;2023-06-19T19:23:53;10.48;;;9.68;;
77402;SDS011;66472;53.046;8.656;2023-06-19T19:28:52;10.63;;;9.73;;
77402;SDS011;66472;53.046;8.656;2023-06-19T19:33:53;11.57;;;10.55;;
77402;SDS011;66472;53.046;8.656;2023-06-19T19:38:48;13.23;;;11.73;;
77402;SDS011;66472;53.046;8.656;2023-06-19T19:43:46;13.60;;;12.38;;
77402;SDS011;66472;53.046;8.656;2023-06-19T19:48:52;13.05;;;11.85;;
77402;SDS011;66472;53.046;8.656;2023-06-19T19:53:50;12.13;;;11.25;;
77402;SDS011;66472;53.046;8.656;2023-06-19T19:58:51;15.53;;;13.73;;
77402;SDS011;66472;53.046;8.656;2023-06-19T20:03:49;16.47;;;14.20;;
77402;SDS011;66472;53.046;8.656;2023-06-19T20:09:17;15.40;;;13.70;;
77402;SDS011;66472;53.046;8.656;2023-06-19T20:14:57;16.53;;;13.33;;
77402;SDS011;66472;53.046;8.656;2023-06-19T20:19:56;13.77;;;12.57;;
77402;SDS011;66472;53.046;8.656;2023-06-19T20:24:54;12.90;;;11.70;;
77402;SDS011;66472;53.046;8.656;2023-06-19T20:37:14;13.97;;;12.97;;
77402;SDS011;66472;53.046;8.656;2023-06-19T20:42:32;14.50;;;13.30;;
77402;SDS011;66472;53.046;8.656;2023-06-19T20:47:38;16.33;;;14.80;;
77402;SDS011;66472;53.046;8.656;2023-06-19T20:52:39;16.67;;;15.57;;
77402;SDS011;66472;53.046;8.656;2023-06-19T20:57:34;18.50;;;16.83;;
77402;SDS011;66472;53.046;8.656;2023-06-19T21:02:39;19.13;;;17.57;;
77402;SDS011;66472;53.046;8.656;2023-06-19T21:07:35;25.73;;;23.90;;
77402;SDS011;66472;53.046;8.656;2023-06-19T21:12:48;23.23;;;21.37;;
77402;SDS011;66472;53.046;8.656;2023-06-19T21:17:47;28.93;;;26.70;;
77402;SDS011;66472;53.046;8.656;2023-06-19T21:22:53;25.43;;;23.73;;
77402;SDS011;66472;53.046;8.656;2023-06-19T21:27:49;22.03;;;20.27;;
77402;SDS011;66472;53.046;8.656;2023-06-19T21:32:44;22.50;;;20.50;;
77402;SDS011;66472;53.046;8.656;2023-06-19T21:37:40;23.97;;;21.93;;
77402;SDS011;66472;53.046;8.656;2023-06-19T21:42:41;23.30;;;21.37;;
77402;SDS011;66472;53.046;8.656;2023-06-19T21:47:36;21.67;;;19.67;;
77402;SDS011;66472;53.046;8.656;2023-06-19T21:52:33;25.37;;;23.03;;
77402;SDS011;66472;53.046;8.656;2023-06-19T21:57:28;24.60;;;22.80;;
77402;SDS011;66472;53.046;8.656;2023-06-19T22:02:23;23.43;;;21.30;;
77402;SDS011;66472;53.046;8.656;2023-06-19T22:07:19;22.43;;;20.63;;
77402;SDS011;66472;53.046;8.656;2023-06-19T22:12:14;22.73;;;20.87;;
77402;SDS011;66472;53.046;8.656;2023-06-19T22:17:10;23.03;;;20.87;;
77402;SDS011;66472;53.046;8.656;2023-06-19T22:22:06;22.10;;;20.60;;
77402;SDS011;66472;53.046;8.656;2023-06-19T22:27:01;22.60;;;20.67;;
77402;SDS011;66472;53.046;8.656;2023-06-19T22:31:57;22.10;;;20.30;;
77402;SDS011;66472;53.046;8.656;2023-06-19T22:36:52;27.17;;;24.63;;
77402;SDS011;66472;53.046;8.656;2023-06-19T22:41:47;23.97;;;21.87;;
77402;SDS011;66472;53.046;8.656;2023-06-19T22:46:43;26.80;;;24.60;;
77402;SDS011;66472;53.046;8.656;2023-06-19T22:51:38;27.10;;;25.17;;
77402;SDS011;66472;53.046;8.656;2023-06-19T22:56:33;28.77;;;26.63;;
77402;SDS011;66472;53.046;8.656;2023-06-19T23:01:28;30.73;;;28.57;;
77402;SDS011;66472;53.046;8.656;2023-06-19T23:06:25;32.77;;;30.30;;
77402;SDS011;66472;53.046;8.656;2023-06-19T23:11:21;31.63;;;29.43;;
77402;SDS011;66472;53.046;8.656;2023-06-19T23:16:19;31.07;;;28.47;;
77402;SDS011;66472;53.046;8.656;2023-06-19T23:21:14;33.33;;;30.73;;
77402;SDS011;66472;53.046;8.656;2023-06-19T23:26:11;33.67;;;30.93;;
77402;SDS011;66472;53.046;8.656;2023-06-19T23:31:08;37.10;;;34.10;;
77402;SDS011;66472;53.046;8.656;2023-06-19T23:36:03;41.07;;;37.83;;
77402;SDS011;66472;53.046;8.656;2023-06-19T23:41:00;38.90;;;36.20;;
77402;SDS011;66472;53.046;8.656;2023-06-19T23:45:56;41.00;;;38.27;;
77402;SDS011;66472;53.046;8.656;2023-06-19T23:50:51;36.00;;;33.33;;
77402;SDS011;66472;53.046;8.656;2023-06-19T23:55:46;36.27;;;33.50;;
